sensor_id;sensor_type;location;lat;lon;timestamp;temperature;humidity
75161;DHT22;67232;50.096;8.716;2023-03-01T00:01:59;3.10;61.60
75161;DHT22;67232;50.096;8.716;2023-03-01T00:04:24;3.10;61.30
75161;DHT22;67232;50.096;8.716;2023-03-01T00:06:50;3.10;61.40
75161;DHT22;67232;50.096;8.716;2023-03-01T00:09:15;3.10;61.60
75161;DHT22;67232;50.096;8.716;2023-03-01T00:11:41;3.20;61.60
75161;DHT22;67232;50.096;8.716;2023-03-01T00:14:07;3.20;61.40
75161;DHT22;67232;50.096;8.716;2023-03-01T00:16:36;3.20;61.30
75161;DHT22;67232;50.096;8.716;2023-03-01T00:19:04;3.10;61.60
75161;DHT22;67232;50.096;8.716;2023-03-01T00:21:32;3.10;61.90
75161;DHT22;67232;50.096;8.716;2023-03-01T00:23:57;2.90;62.20
75161;DHT22;67232;50.096;8.716;2023-03-01T00:26:24;2.80;62.70
75161;DHT22;67232;50.096;8.716;2023-03-01T00:28:50;2.80;62.60
75161;DHT22;67232;50.096;8.716;2023-03-01T00:31:19;2.70;62.90
75161;DHT22;67232;50.096;8.716;2023-03-01T00:33:45;2.90;62.60
75161;DHT22;67232;50.096;8.716;2023-03-01T00:36:13;3.20;62.00
75161;DHT22;67232;50.096;8.716;2023-03-01T00:38:41;3.20;61.40
75161;DHT22;67232;50.096;8.716;2023-03-01T00:41:09;3.00;62.20
75161;DHT22;67232;50.096;8.716;2023-03-01T00:43:37;2.90;62.50
75161;DHT22;67232;50.096;8.716;2023-03-01T00:46:11;3.00;62.30
75161;DHT22;67232;50.096;8.716;2023-03-01T00:48:38;3.00;62.20
75161;DHT22;67232;50.096;8.716;2023-03-01T00:51:10;3.10;62.10
75161;DHT22;67232;50.096;8.716;2023-03-01T00:53:37;3.00;62.30
75161;DHT22;67232;50.096;8.716;2023-03-01T00:56:04;3.00;62.40
75161;DHT22;67232;50.096;8.716;2023-03-01T00:58:35;3.00;62.10
75161;DHT22;67232;50.096;8.716;2023-03-01T01:01:08;2.90;62.80
75161;DHT22;67232;50.096;8.716;2023-03-01T01:06:15;3.10;62.30
75161;DHT22;67232;50.096;8.716;2023-03-01T01:08:40;3.00;62.10
75161;DHT22;67232;50.096;8.716;2023-03-01T01:11:09;3.20;62.10
75161;DHT22;67232;50.096;8.716;2023-03-01T01:13:39;3.20;61.90
75161;DHT22;67232;50.096;8.716;2023-03-01T01:16:10;3.20;61.80
75161;DHT22;67232;50.096;8.716;2023-03-01T01:18:38;3.10;62.10
75161;DHT22;67232;50.096;8.716;2023-03-01T01:21:09;3.00;62.30
75161;DHT22;67232;50.096;8.716;2023-03-01T01:23:37;3.10;62.30
75161;DHT22;67232;50.096;8.716;2023-03-01T01:26:09;3.20;61.90
75161;DHT22;67232;50.096;8.716;2023-03-01T01:28:37;3.00;62.30
75161;DHT22;67232;50.096;8.716;2023-03-01T01:31:04;3.00;62.30
75161;DHT22;67232;50.096;8.716;2023-03-01T01:33:29;3.30;62.00
75161;DHT22;67232;50.096;8.716;2023-03-01T01:35:55;3.10;62.20
75161;DHT22;67232;50.096;8.716;2023-03-01T01:38:21;3.00;62.40
75161;DHT22;67232;50.096;8.716;2023-03-01T01:40:50;3.10;62.40
75161;DHT22;67232;50.096;8.716;2023-03-01T01:43:46;2.90;62.80
75161;DHT22;67232;50.096;8.716;2023-03-01T01:46:31;2.90;63.00
75161;DHT22;67232;50.096;8.716;2023-03-01T01:49:01;3.00;63.00
75161;DHT22;67232;50.096;8.716;2023-03-01T01:51:40;2.90;63.10
75161;DHT22;67232;50.096;8.716;2023-03-01T01:54:32;3.00;63.10
75161;DHT22;67232;50.096;8.716;2023-03-01T01:57:03;2.90;62.90
75161;DHT22;67232;50.096;8.716;2023-03-01T01:59:30;3.00;62.80
75161;DHT22;67232;50.096;8.716;2023-03-01T02:01:59;3.10;62.70
75161;DHT22;67232;50.096;8.716;2023-03-01T02:04:25;3.00;62.60
75161;DHT22;67232;50.096;8.716;2023-03-01T02:06:58;2.70;63.40
75161;DHT22;67232;50.096;8.716;2023-03-01T02:09:26;2.90;63.00
75161;DHT22;67232;50.096;8.716;2023-03-01T02:11:53;3.00;62.80
75161;DHT22;67232;50.096;8.716;2023-03-01T02:14:19;2.90;63.20
75161;DHT22;67232;50.096;8.716;2023-03-01T02:16:47;2.90;63.40
75161;DHT22;67232;50.096;8.716;2023-03-01T02:22:28;2.70;63.80
75161;DHT22;67232;50.096;8.716;2023-03-01T02:28:19;2.80;63.10
75161;DHT22;67232;50.096;8.716;2023-03-01T02:30:48;2.80;63.20
75161;DHT22;67232;50.096;8.716;2023-03-01T02:33:35;3.10;62.80
75161;DHT22;67232;50.096;8.716;2023-03-01T02:36:06;3.10;62.50
75161;DHT22;67232;50.096;8.716;2023-03-01T02:38:33;3.00;62.90
75161;DHT22;67232;50.096;8.716;2023-03-01T02:40:59;2.90;62.90
75161;DHT22;67232;50.096;8.716;2023-03-01T02:43:30;3.00;62.70
75161;DHT22;67232;50.096;8.716;2023-03-01T02:46:02;3.00;62.80
75161;DHT22;67232;50.096;8.716;2023-03-01T02:48:45;2.90;62.60
75161;DHT22;67232;50.096;8.716;2023-03-01T02:56:38;3.00;62.60
75161;DHT22;67232;50.096;8.716;2023-03-01T02:59:04;2.90;63.00
75161;DHT22;67232;50.096;8.716;2023-03-01T03:01:30;2.80;63.00
75161;DHT22;67232;50.096;8.716;2023-03-01T03:04:02;2.70;63.50
75161;DHT22;67232;50.096;8.716;2023-03-01T03:06:28;2.90;63.30
75161;DHT22;67232;50.096;8.716;2023-03-01T03:08:54;2.90;63.40
75161;DHT22;67232;50.096;8.716;2023-03-01T03:11:20;2.90;63.50
75161;DHT22;67232;50.096;8.716;2023-03-01T03:13:48;2.90;63.10
75161;DHT22;67232;50.096;8.716;2023-03-01T03:16:14;3.00;62.90
75161;DHT22;67232;50.096;8.716;2023-03-01T03:18:40;2.90;63.00
75161;DHT22;67232;50.096;8.716;2023-03-01T03:21:10;3.00;63.10
75161;DHT22;67232;50.096;8.716;2023-03-01T03:23:36;2.90;63.20
75161;DHT22;67232;50.096;8.716;2023-03-01T03:26:03;2.80;63.30
75161;DHT22;67232;50.096;8.716;2023-03-01T03:28:35;2.80;63.20
75161;DHT22;67232;50.096;8.716;2023-03-01T03:31:01;2.90;62.80
75161;DHT22;67232;50.096;8.716;2023-03-01T03:33:30;2.80;62.70
75161;DHT22;67232;50.096;8.716;2023-03-01T03:35:56;2.80;63.20
75161;DHT22;67232;50.096;8.716;2023-03-01T03:38:22;2.70;63.20
75161;DHT22;67232;50.096;8.716;2023-03-01T03:41:03;2.60;63.40
75161;DHT22;67232;50.096;8.716;2023-03-01T03:43:31;2.60;63.60
75161;DHT22;67232;50.096;8.716;2023-03-01T03:45:57;2.60;63.50
75161;DHT22;67232;50.096;8.716;2023-03-01T03:48:23;2.60;63.50
75161;DHT22;67232;50.096;8.716;2023-03-01T03:50:54;2.60;63.50
75161;DHT22;67232;50.096;8.716;2023-03-01T03:53:23;2.60;63.60
75161;DHT22;67232;50.096;8.716;2023-03-01T03:55:52;2.60;63.70
75161;DHT22;67232;50.096;8.716;2023-03-01T03:58:19;2.50;64.00
75161;DHT22;67232;50.096;8.716;2023-03-01T04:00:46;2.70;63.70
75161;DHT22;67232;50.096;8.716;2023-03-01T04:03:14;2.80;63.30
75161;DHT22;67232;50.096;8.716;2023-03-01T04:05:41;2.60;63.50
75161;DHT22;67232;50.096;8.716;2023-03-01T04:08:09;2.70;63.40
75161;DHT22;67232;50.096;8.716;2023-03-01T04:10:43;2.90;63.30
75161;DHT22;67232;50.096;8.716;2023-03-01T04:13:14;3.00;63.00
75161;DHT22;67232;50.096;8.716;2023-03-01T04:15:41;2.70;63.50
75161;DHT22;67232;50.096;8.716;2023-03-01T04:18:09;2.50;63.90
75161;DHT22;67232;50.096;8.716;2023-03-01T04:20:37;2.60;63.80
75161;DHT22;67232;50.096;8.716;2023-03-01T04:23:11;2.60;63.70
75161;DHT22;67232;50.096;8.716;2023-03-01T04:28:30;2.50;64.00
75161;DHT22;67232;50.096;8.716;2023-03-01T04:31:03;2.40;64.40
75161;DHT22;67232;50.096;8.716;2023-03-01T04:33:39;2.50;64.10
75161;DHT22;67232;50.096;8.716;2023-03-01T04:36:06;2.30;64.50
75161;DHT22;67232;50.096;8.716;2023-03-01T04:38:34;2.40;64.40
75161;DHT22;67232;50.096;8.716;2023-03-01T04:41:03;2.30;64.40
75161;DHT22;67232;50.096;8.716;2023-03-01T04:43:31;2.40;64.40
75161;DHT22;67232;50.096;8.716;2023-03-01T04:46:03;2.30;64.70
75161;DHT22;67232;50.096;8.716;2023-03-01T04:48:30;2.40;64.50
75161;DHT22;67232;50.096;8.716;2023-03-01T04:50:59;2.30;64.50
75161;DHT22;67232;50.096;8.716;2023-03-01T04:53:27;2.30;64.80
75161;DHT22;67232;50.096;8.716;2023-03-01T04:55:55;2.40;64.50
75161;DHT22;67232;50.096;8.716;2023-03-01T04:58:26;2.50;64.30
75161;DHT22;67232;50.096;8.716;2023-03-01T05:00:53;2.40;64.20
75161;DHT22;67232;50.096;8.716;2023-03-01T05:03:19;2.50;64.30
75161;DHT22;67232;50.096;8.716;2023-03-01T05:05:47;2.40;64.40
75161;DHT22;67232;50.096;8.716;2023-03-01T05:08:14;2.30;64.60
75161;DHT22;67232;50.096;8.716;2023-03-01T05:10:50;2.30;64.70
75161;DHT22;67232;50.096;8.716;2023-03-01T05:13:20;2.20;64.90
75161;DHT22;67232;50.096;8.716;2023-03-01T05:16:00;2.30;64.50
75161;DHT22;67232;50.096;8.716;2023-03-01T05:18:27;2.30;65.00
75161;DHT22;67232;50.096;8.716;2023-03-01T05:20:54;2.30;64.80
75161;DHT22;67232;50.096;8.716;2023-03-01T05:23:23;2.30;64.80
75161;DHT22;67232;50.096;8.716;2023-03-01T05:25:51;2.40;64.70
75161;DHT22;67232;50.096;8.716;2023-03-01T05:28:18;2.30;64.60
75161;DHT22;67232;50.096;8.716;2023-03-01T05:30:45;2.40;64.50
75161;DHT22;67232;50.096;8.716;2023-03-01T05:33:11;2.40;64.50
75161;DHT22;67232;50.096;8.716;2023-03-01T05:35:40;2.30;64.70
75161;DHT22;67232;50.096;8.716;2023-03-01T05:38:07;2.40;64.50
75161;DHT22;67232;50.096;8.716;2023-03-01T05:40:35;2.40;64.30
75161;DHT22;67232;50.096;8.716;2023-03-01T05:43:03;2.40;64.40
75161;DHT22;67232;50.096;8.716;2023-03-01T05:45:30;2.40;64.30
75161;DHT22;67232;50.096;8.716;2023-03-01T05:47:58;2.40;64.20
75161;DHT22;67232;50.096;8.716;2023-03-01T05:50:26;2.30;64.30
75161;DHT22;67232;50.096;8.716;2023-03-01T05:53:01;2.50;64.20
75161;DHT22;67232;50.096;8.716;2023-03-01T05:55:30;2.30;64.60
75161;DHT22;67232;50.096;8.716;2023-03-01T05:57:59;2.10;64.90
75161;DHT22;67232;50.096;8.716;2023-03-01T06:00:28;2.00;65.50
75161;DHT22;67232;50.096;8.716;2023-03-01T06:02:57;2.00;65.70
75161;DHT22;67232;50.096;8.716;2023-03-01T06:05:24;1.90;65.60
75161;DHT22;67232;50.096;8.716;2023-03-01T06:07:50;1.80;66.00
75161;DHT22;67232;50.096;8.716;2023-03-01T06:10:19;1.90;65.70
75161;DHT22;67232;50.096;8.716;2023-03-01T06:12:48;1.80;66.00
75161;DHT22;67232;50.096;8.716;2023-03-01T06:15:15;1.90;65.90
75161;DHT22;67232;50.096;8.716;2023-03-01T06:17:43;1.80;65.90
75161;DHT22;67232;50.096;8.716;2023-03-01T06:20:22;1.80;65.80
75161;DHT22;67232;50.096;8.716;2023-03-01T06:22:50;1.90;65.80
75161;DHT22;67232;50.096;8.716;2023-03-01T06:25:19;2.00;65.60
75161;DHT22;67232;50.096;8.716;2023-03-01T06:27:45;2.20;65.20
75161;DHT22;67232;50.096;8.716;2023-03-01T06:30:13;2.30;64.90
75161;DHT22;67232;50.096;8.716;2023-03-01T06:32:40;2.30;64.70
75161;DHT22;67232;50.096;8.716;2023-03-01T06:35:10;2.30;64.70
75161;DHT22;67232;50.096;8.716;2023-03-01T06:37:36;2.20;65.00
75161;DHT22;67232;50.096;8.716;2023-03-01T06:40:03;2.30;64.90
75161;DHT22;67232;50.096;8.716;2023-03-01T06:42:40;2.20;64.90
75161;DHT22;67232;50.096;8.716;2023-03-01T06:45:07;2.40;64.80
75161;DHT22;67232;50.096;8.716;2023-03-01T06:47:36;2.50;64.50
75161;DHT22;67232;50.096;8.716;2023-03-01T06:50:02;2.60;64.30
75161;DHT22;67232;50.096;8.716;2023-03-01T06:52:28;2.40;64.10
75161;DHT22;67232;50.096;8.716;2023-03-01T06:54:54;2.60;64.10
75161;DHT22;67232;50.096;8.716;2023-03-01T06:57:20;2.60;64.00
75161;DHT22;67232;50.096;8.716;2023-03-01T06:59:47;2.70;63.90
75161;DHT22;67232;50.096;8.716;2023-03-01T07:02:12;2.70;63.80
75161;DHT22;67232;50.096;8.716;2023-03-01T07:04:41;2.80;63.50
75161;DHT22;67232;50.096;8.716;2023-03-01T07:07:09;2.90;63.20
75161;DHT22;67232;50.096;8.716;2023-03-01T07:09:35;2.90;63.30
75161;DHT22;67232;50.096;8.716;2023-03-01T07:12:01;3.00;63.10
75161;DHT22;67232;50.096;8.716;2023-03-01T07:14:29;2.90;63.30
75161;DHT22;67232;50.096;8.716;2023-03-01T07:16:55;2.80;63.40
75161;DHT22;67232;50.096;8.716;2023-03-01T07:19:23;2.90;63.20
75161;DHT22;67232;50.096;8.716;2023-03-01T07:21:49;3.00;63.20
75161;DHT22;67232;50.096;8.716;2023-03-01T07:24:29;2.90;63.30
75161;DHT22;67232;50.096;8.716;2023-03-01T07:26:55;2.80;63.80
75161;DHT22;67232;50.096;8.716;2023-03-01T07:29:24;2.80;64.00
75161;DHT22;67232;50.096;8.716;2023-03-01T07:31:52;2.70;64.20
75161;DHT22;67232;50.096;8.716;2023-03-01T07:34:18;2.80;64.00
75161;DHT22;67232;50.096;8.716;2023-03-01T07:36:43;2.80;64.30
75161;DHT22;67232;50.096;8.716;2023-03-01T07:39:15;2.70;64.70
75161;DHT22;67232;50.096;8.716;2023-03-01T07:41:40;2.90;64.30
75161;DHT22;67232;50.096;8.716;2023-03-01T07:44:16;3.00;64.30
75161;DHT22;67232;50.096;8.716;2023-03-01T07:46:42;3.10;64.20
75161;DHT22;67232;50.096;8.716;2023-03-01T07:49:11;3.20;64.00
75161;DHT22;67232;50.096;8.716;2023-03-01T07:51:41;3.30;63.80
75161;DHT22;67232;50.096;8.716;2023-03-01T07:54:08;3.40;63.30
75161;DHT22;67232;50.096;8.716;2023-03-01T07:56:33;3.60;63.00
75161;DHT22;67232;50.096;8.716;2023-03-01T07:58:59;3.90;62.60
75161;DHT22;67232;50.096;8.716;2023-03-01T08:01:25;3.90;62.00
75161;DHT22;67232;50.096;8.716;2023-03-01T08:03:53;4.10;61.70
75161;DHT22;67232;50.096;8.716;2023-03-01T08:06:18;4.40;61.20
75161;DHT22;67232;50.096;8.716;2023-03-01T08:08:44;4.80;60.90
75161;DHT22;67232;50.096;8.716;2023-03-01T08:11:14;4.90;60.30
75161;DHT22;67232;50.096;8.716;2023-03-01T08:13:42;5.00;59.70
75161;DHT22;67232;50.096;8.716;2023-03-01T08:16:13;5.30;59.40
75161;DHT22;67232;50.096;8.716;2023-03-01T08:18:41;5.40;59.00
75161;DHT22;67232;50.096;8.716;2023-03-01T08:21:13;5.50;58.40
75161;DHT22;67232;50.096;8.716;2023-03-01T08:23:40;5.60;58.50
75161;DHT22;67232;50.096;8.716;2023-03-01T08:26:09;5.50;58.30
75161;DHT22;67232;50.096;8.716;2023-03-01T08:28:35;5.70;58.20
75161;DHT22;67232;50.096;8.716;2023-03-01T08:31:17;6.00;57.50
75161;DHT22;67232;50.096;8.716;2023-03-01T08:33:43;6.30;57.40
75161;DHT22;67232;50.096;8.716;2023-03-01T08:36:16;6.70;56.60
75161;DHT22;67232;50.096;8.716;2023-03-01T08:38:42;6.70;56.10
75161;DHT22;67232;50.096;8.716;2023-03-01T08:41:07;6.80;56.30
75161;DHT22;67232;50.096;8.716;2023-03-01T08:43:33;7.10;55.50
75161;DHT22;67232;50.096;8.716;2023-03-01T08:46:01;7.20;55.60
75161;DHT22;67232;50.096;8.716;2023-03-01T08:48:29;7.70;55.00
75161;DHT22;67232;50.096;8.716;2023-03-01T08:50:55;7.90;53.90
75161;DHT22;67232;50.096;8.716;2023-03-01T08:53:23;8.30;53.20
75161;DHT22;67232;50.096;8.716;2023-03-01T08:55:51;9.00;52.30
75161;DHT22;67232;50.096;8.716;2023-03-01T08:58:16;9.50;51.00
75161;DHT22;67232;50.096;8.716;2023-03-01T09:00:44;9.80;51.00
75161;DHT22;67232;50.096;8.716;2023-03-01T09:03:12;9.90;50.80
75161;DHT22;67232;50.096;8.716;2023-03-01T09:05:40;9.60;50.20
75161;DHT22;67232;50.096;8.716;2023-03-01T09:08:06;9.20;51.10
75161;DHT22;67232;50.096;8.716;2023-03-01T09:10:37;9.80;50.90
75161;DHT22;67232;50.096;8.716;2023-03-01T09:13:05;10.20;49.70
75161;DHT22;67232;50.096;8.716;2023-03-01T09:15:31;10.50;49.40
75161;DHT22;67232;50.096;8.716;2023-03-01T09:18:02;11.90;48.00
75161;DHT22;67232;50.096;8.716;2023-03-01T09:20:30;12.90;45.60
75161;DHT22;67232;50.096;8.716;2023-03-01T09:22:56;13.10;44.70
75161;DHT22;67232;50.096;8.716;2023-03-01T09:25:24;13.30;44.50
75161;DHT22;67232;50.096;8.716;2023-03-01T09:27:54;13.40;44.00
75161;DHT22;67232;50.096;8.716;2023-03-01T09:30:20;13.60;44.00
75161;DHT22;67232;50.096;8.716;2023-03-01T09:32:46;13.80;43.70
75161;DHT22;67232;50.096;8.716;2023-03-01T09:35:15;12.70;44.00
75161;DHT22;67232;50.096;8.716;2023-03-01T09:37:45;12.40;47.00
75161;DHT22;67232;50.096;8.716;2023-03-01T09:40:15;12.50;46.20
75161;DHT22;67232;50.096;8.716;2023-03-01T09:43:01;13.10;45.20
75161;DHT22;67232;50.096;8.716;2023-03-01T09:45:38;13.40;44.80
75161;DHT22;67232;50.096;8.716;2023-03-01T09:48:15;14.70;43.30
75161;DHT22;67232;50.096;8.716;2023-03-01T09:50:43;14.90;42.80
75161;DHT22;67232;50.096;8.716;2023-03-01T09:53:32;15.90;40.40
75161;DHT22;67232;50.096;8.716;2023-03-01T09:56:28;16.00;39.10
75161;DHT22;67232;50.096;8.716;2023-03-01T10:02:01;15.10;41.40
75161;DHT22;67232;50.096;8.716;2023-03-01T10:04:44;16.00;39.90
75161;DHT22;67232;50.096;8.716;2023-03-01T10:09:41;17.10;38.70
75161;DHT22;67232;50.096;8.716;2023-03-01T10:12:16;18.90;36.40
75161;DHT22;67232;50.096;8.716;2023-03-01T10:17:52;20.40;35.20
75161;DHT22;67232;50.096;8.716;2023-03-01T10:20:25;20.30;34.30
75161;DHT22;67232;50.096;8.716;2023-03-01T10:22:51;21.40;33.90
75161;DHT22;67232;50.096;8.716;2023-03-01T10:30:53;23.70;31.00
75161;DHT22;67232;50.096;8.716;2023-03-01T10:33:24;22.90;31.90
75161;DHT22;67232;50.096;8.716;2023-03-01T10:35:51;23.40;31.70
75161;DHT22;67232;50.096;8.716;2023-03-01T10:38:18;23.80;31.20
75161;DHT22;67232;50.096;8.716;2023-03-01T10:43:49;24.40;30.20
75161;DHT22;67232;50.096;8.716;2023-03-01T10:46:36;25.00;29.90
75161;DHT22;67232;50.096;8.716;2023-03-01T10:49:22;24.80;29.80
75161;DHT22;67232;50.096;8.716;2023-03-01T10:51:54;23.70;30.40
75161;DHT22;67232;50.096;8.716;2023-03-01T10:54:30;24.30;29.90
75161;DHT22;67232;50.096;8.716;2023-03-01T10:56:59;24.60;30.00
75161;DHT22;67232;50.096;8.716;2023-03-01T10:59:28;26.30;29.10
75161;DHT22;67232;50.096;8.716;2023-03-01T11:02:22;26.30;28.40
75161;DHT22;67232;50.096;8.716;2023-03-01T11:05:21;26.40;28.40
75161;DHT22;67232;50.096;8.716;2023-03-01T11:07:53;27.00;27.70
75161;DHT22;67232;50.096;8.716;2023-03-01T11:10:33;27.40;27.70
75161;DHT22;67232;50.096;8.716;2023-03-01T11:15:45;28.40;27.20
75161;DHT22;67232;50.096;8.716;2023-03-01T11:18:23;28.10;26.50
75161;DHT22;67232;50.096;8.716;2023-03-01T11:20:51;28.10;26.50
75161;DHT22;67232;50.096;8.716;2023-03-01T11:23:19;27.60;26.30
75161;DHT22;67232;50.096;8.716;2023-03-01T11:25:55;27.50;26.60
75161;DHT22;67232;50.096;8.716;2023-03-01T11:28:22;27.90;26.40
75161;DHT22;67232;50.096;8.716;2023-03-01T11:35:49;27.80;26.10
75161;DHT22;67232;50.096;8.716;2023-03-01T11:38:26;29.30;25.10
75161;DHT22;67232;50.096;8.716;2023-03-01T11:43:26;28.70;26.00
75161;DHT22;67232;50.096;8.716;2023-03-01T12:07:50;29.40;24.20
75161;DHT22;67232;50.096;8.716;2023-03-01T12:10:35;29.90;24.40
75161;DHT22;67232;50.096;8.716;2023-03-01T12:13:27;31.00;23.70
75161;DHT22;67232;50.096;8.716;2023-03-01T12:19:01;29.40;23.80
75161;DHT22;67232;50.096;8.716;2023-03-01T12:25:08;28.90;24.70
75161;DHT22;67232;50.096;8.716;2023-03-01T12:35:40;28.20;24.20
75161;DHT22;67232;50.096;8.716;2023-03-01T12:38:32;27.60;24.80
75161;DHT22;67232;50.096;8.716;2023-03-01T12:49:26;27.20;24.80
75161;DHT22;67232;50.096;8.716;2023-03-01T12:52:00;25.50;26.30
75161;DHT22;67232;50.096;8.716;2023-03-01T12:54:30;23.50;27.30
75161;DHT22;67232;50.096;8.716;2023-03-01T12:57:02;19.70;29.30
75161;DHT22;67232;50.096;8.716;2023-03-01T13:00:00;18.00;31.30
75161;DHT22;67232;50.096;8.716;2023-03-01T13:02:35;16.20;33.20
75161;DHT22;67232;50.096;8.716;2023-03-01T13:08:13;14.20;36.40
75161;DHT22;67232;50.096;8.716;2023-03-01T13:10:55;13.30;37.40
75161;DHT22;67232;50.096;8.716;2023-03-01T13:13:27;13.20;38.30
75161;DHT22;67232;50.096;8.716;2023-03-01T13:15:54;13.50;37.90
75161;DHT22;67232;50.096;8.716;2023-03-01T13:20:53;13.00;38.10
75161;DHT22;67232;50.096;8.716;2023-03-01T13:31:05;12.00;39.50
75161;DHT22;67232;50.096;8.716;2023-03-01T13:35:59;11.60;40.50
75161;DHT22;67232;50.096;8.716;2023-03-01T13:44:35;11.50;42.30
75161;DHT22;67232;50.096;8.716;2023-03-01T13:55:01;11.40;43.80
75161;DHT22;67232;50.096;8.716;2023-03-01T13:57:36;11.20;43.70
75161;DHT22;67232;50.096;8.716;2023-03-01T14:00:24;11.00;44.20
75161;DHT22;67232;50.096;8.716;2023-03-01T14:05:30;11.10;43.70
75161;DHT22;67232;50.096;8.716;2023-03-01T14:07:56;10.90;44.50
75161;DHT22;67232;50.096;8.716;2023-03-01T14:10:21;11.10;44.30
75161;DHT22;67232;50.096;8.716;2023-03-01T14:13:05;11.30;43.00
75161;DHT22;67232;50.096;8.716;2023-03-01T14:15:42;11.40;41.50
75161;DHT22;67232;50.096;8.716;2023-03-01T14:18:18;11.20;41.60
75161;DHT22;67232;50.096;8.716;2023-03-01T14:20:46;11.30;41.80
75161;DHT22;67232;50.096;8.716;2023-03-01T14:23:19;11.50;41.30
75161;DHT22;67232;50.096;8.716;2023-03-01T14:25:59;11.30;41.30
75161;DHT22;67232;50.096;8.716;2023-03-01T14:28:29;11.20;41.30
75161;DHT22;67232;50.096;8.716;2023-03-01T14:30:57;11.10;42.10
75161;DHT22;67232;50.096;8.716;2023-03-01T14:33:27;11.10;42.20
75161;DHT22;67232;50.096;8.716;2023-03-01T14:36:08;10.80;42.00
75161;DHT22;67232;50.096;8.716;2023-03-01T14:41:07;10.60;42.80
75161;DHT22;67232;50.096;8.716;2023-03-01T14:43:35;10.70;43.50
75161;DHT22;67232;50.096;8.716;2023-03-01T14:46:20;11.00;43.30
75161;DHT22;67232;50.096;8.716;2023-03-01T14:49:01;11.10;43.00
75161;DHT22;67232;50.096;8.716;2023-03-01T14:51:28;11.20;43.10
75161;DHT22;67232;50.096;8.716;2023-03-01T14:53:53;11.30;42.70
75161;DHT22;67232;50.096;8.716;2023-03-01T14:56:21;11.10;43.40
75161;DHT22;67232;50.096;8.716;2023-03-01T14:58:53;10.80;44.20
75161;DHT22;67232;50.096;8.716;2023-03-01T15:01:26;10.90;44.20
75161;DHT22;67232;50.096;8.716;2023-03-01T15:03:55;11.10;44.10
75161;DHT22;67232;50.096;8.716;2023-03-01T15:06:22;10.80;44.70
75161;DHT22;67232;50.096;8.716;2023-03-01T15:08:51;10.60;44.10
75161;DHT22;67232;50.096;8.716;2023-03-01T15:11:30;10.60;44.00
75161;DHT22;67232;50.096;8.716;2023-03-01T15:13:57;10.70;44.10
75161;DHT22;67232;50.096;8.716;2023-03-01T15:16:31;10.60;44.50
75161;DHT22;67232;50.096;8.716;2023-03-01T15:19:02;10.50;45.20
75161;DHT22;67232;50.096;8.716;2023-03-01T15:21:33;10.20;45.40
75161;DHT22;67232;50.096;8.716;2023-03-01T15:26:50;10.00;45.80
75161;DHT22;67232;50.096;8.716;2023-03-01T15:29:22;10.10;45.90
75161;DHT22;67232;50.096;8.716;2023-03-01T15:32:23;9.90;45.90
75161;DHT22;67232;50.096;8.716;2023-03-01T15:34:50;10.00;46.30
75161;DHT22;67232;50.096;8.716;2023-03-01T15:40:48;9.90;46.10
75161;DHT22;67232;50.096;8.716;2023-03-01T15:43:44;10.10;45.60
75161;DHT22;67232;50.096;8.716;2023-03-01T15:46:26;9.90;45.70
75161;DHT22;67232;50.096;8.716;2023-03-01T15:48:56;9.90;45.90
75161;DHT22;67232;50.096;8.716;2023-03-01T15:51:29;9.90;45.90
75161;DHT22;67232;50.096;8.716;2023-03-01T15:53:56;9.80;45.80
75161;DHT22;67232;50.096;8.716;2023-03-01T15:56:25;9.70;46.10
75161;DHT22;67232;50.096;8.716;2023-03-01T15:58:51;9.80;46.00
75161;DHT22;67232;50.096;8.716;2023-03-01T16:01:17;9.70;46.10
75161;DHT22;67232;50.096;8.716;2023-03-01T16:03:47;9.60;46.50
75161;DHT22;67232;50.096;8.716;2023-03-01T16:06:13;9.60;46.50
75161;DHT22;67232;50.096;8.716;2023-03-01T16:08:39;9.70;46.40
75161;DHT22;67232;50.096;8.716;2023-03-01T16:11:18;9.60;46.60
75161;DHT22;67232;50.096;8.716;2023-03-01T16:13:43;9.60;46.40
75161;DHT22;67232;50.096;8.716;2023-03-01T16:16:13;9.50;46.70
75161;DHT22;67232;50.096;8.716;2023-03-01T16:18:42;9.50;46.80
75161;DHT22;67232;50.096;8.716;2023-03-01T16:21:16;9.40;47.10
75161;DHT22;67232;50.096;8.716;2023-03-01T16:23:46;9.40;47.00
75161;DHT22;67232;50.096;8.716;2023-03-01T16:26:16;9.30;47.10
75161;DHT22;67232;50.096;8.716;2023-03-01T16:28:47;9.20;47.40
75161;DHT22;67232;50.096;8.716;2023-03-01T16:31:19;9.00;47.40
75161;DHT22;67232;50.096;8.716;2023-03-01T16:33:44;9.10;47.40
75161;DHT22;67232;50.096;8.716;2023-03-01T16:36:15;9.20;47.30
75161;DHT22;67232;50.096;8.716;2023-03-01T16:38:41;9.30;47.40
75161;DHT22;67232;50.096;8.716;2023-03-01T16:41:17;9.20;47.40
75161;DHT22;67232;50.096;8.716;2023-03-01T16:43:46;9.30;47.70
75161;DHT22;67232;50.096;8.716;2023-03-01T16:46:21;9.10;47.40
75161;DHT22;67232;50.096;8.716;2023-03-01T16:48:51;9.20;47.40
75161;DHT22;67232;50.096;8.716;2023-03-01T16:51:17;9.20;47.60
75161;DHT22;67232;50.096;8.716;2023-03-01T16:53:45;9.10;47.80
75161;DHT22;67232;50.096;8.716;2023-03-01T16:56:12;9.00;48.10
75161;DHT22;67232;50.096;8.716;2023-03-01T16:58:39;9.10;48.40
75161;DHT22;67232;50.096;8.716;2023-03-01T17:01:16;9.10;49.20
75161;DHT22;67232;50.096;8.716;2023-03-01T17:03:42;9.10;48.20
75161;DHT22;67232;50.096;8.716;2023-03-01T17:06:10;9.00;48.80
75161;DHT22;67232;50.096;8.716;2023-03-01T17:08:37;9.00;49.00
75161;DHT22;67232;50.096;8.716;2023-03-01T17:11:19;9.00;48.40
75161;DHT22;67232;50.096;8.716;2023-03-01T17:13:47;8.80;48.40
75161;DHT22;67232;50.096;8.716;2023-03-01T17:16:17;8.80;48.70
75161;DHT22;67232;50.096;8.716;2023-03-01T17:18:44;8.90;48.80
75161;DHT22;67232;50.096;8.716;2023-03-01T17:21:12;8.60;49.50
75161;DHT22;67232;50.096;8.716;2023-03-01T17:23:40;8.40;49.60
75161;DHT22;67232;50.096;8.716;2023-03-01T17:26:07;8.60;49.40
75161;DHT22;67232;50.096;8.716;2023-03-01T17:28:33;8.70;48.90
75161;DHT22;67232;50.096;8.716;2023-03-01T17:30:59;8.70;48.60
75161;DHT22;67232;50.096;8.716;2023-03-01T17:33:27;8.60;48.70
75161;DHT22;67232;50.096;8.716;2023-03-01T17:35:55;8.60;48.70
75161;DHT22;67232;50.096;8.716;2023-03-01T17:38:21;8.50;48.90
75161;DHT22;67232;50.096;8.716;2023-03-01T17:40:52;8.40;49.10
75161;DHT22;67232;50.096;8.716;2023-03-01T17:43:18;8.60;49.20
75161;DHT22;67232;50.096;8.716;2023-03-01T17:45:44;8.70;49.00
75161;DHT22;67232;50.096;8.716;2023-03-01T17:48:14;8.50;49.20
75161;DHT22;67232;50.096;8.716;2023-03-01T17:50:40;8.50;49.10
75161;DHT22;67232;50.096;8.716;2023-03-01T17:53:09;8.40;49.20
75161;DHT22;67232;50.096;8.716;2023-03-01T17:55:39;8.30;49.20
75161;DHT22;67232;50.096;8.716;2023-03-01T17:58:06;8.20;49.40
75161;DHT22;67232;50.096;8.716;2023-03-01T18:00:36;8.10;49.40
75161;DHT22;67232;50.096;8.716;2023-03-01T18:03:04;8.00;49.40
75161;DHT22;67232;50.096;8.716;2023-03-01T18:05:36;8.10;49.60
75161;DHT22;67232;50.096;8.716;2023-03-01T18:08:05;7.90;49.80
75161;DHT22;67232;50.096;8.716;2023-03-01T18:10:34;7.80;49.80
75161;DHT22;67232;50.096;8.716;2023-03-01T18:13:02;7.90;49.70